sensor_id;sensor_type;location;lat;lon;timestamp;temperature;humidity
36352;DHT22;22382;44.768;17.206;2023-11-21T00:00:15;10.00;99.90
36352;DHT22;22382;44.768;17.206;2023-11-21T00:02:43;10.10;99.90
36352;DHT22;22382;44.768;17.206;2023-11-21T00:05:11;10.00;99.90
36352;DHT22;22382;44.768;17.206;2023-11-21T00:07:42;10.10;99.90
36352;DHT22;22382;44.768;17.206;2023-11-21T00:10:10;10.00;99.90
36352;DHT22;22382;44.768;17.206;2023-11-21T00:12:38;10.00;99.90
36352;DHT22;22382;44.768;17.206;2023-11-21T00:15:05;10.00;99.90
36352;DHT22;22382;44.768;17.206;2023-11-21T00:17:37;9.90;99.90
36352;DHT22;22382;44.768;17.206;2023-11-21T00:20:06;9.90;99.90
36352;DHT22;22382;44.768;17.206;2023-11-21T00:22:36;9.90;99.90
36352;DHT22;22382;44.768;17.206;2023-11-21T00:25:04;9.90;99.90
36352;DHT22;22382;44.768;17.206;2023-11-21T00:27:31;9.90;99.90
36352;DHT22;22382;44.768;17.206;2023-11-21T00:29:58;9.90;99.90
36352;DHT22;22382;44.768;17.206;2023-11-21T00:32:26;9.90;99.90
36352;DHT22;22382;44.768;17.206;2023-11-21T00:34:53;9.90;99.90
36352;DHT22;22382;44.768;17.206;2023-11-21T00:37:21;9.90;99.90
36352;DHT22;22382;44.768;17.206;2023-11-21T00:39:48;10.00;99.90
36352;DHT22;22382;44.768;17.206;2023-11-21T00:42:16;10.00;99.90
36352;DHT22;22382;44.768;17.206;2023-11-21T00:44:43;10.00;99.90
36352;DHT22;22382;44.768;17.206;2023-11-21T00:47:10;9.90;99.90
36352;DHT22;22382;44.768;17.206;2023-11-21T00:49:37;9.90;99.90
36352;DHT22;22382;44.768;17.206;2023-11-21T00:52:06;9.90;99.90
36352;DHT22;22382;44.768;17.206;2023-11-21T00:54:34;10.00;99.90
36352;DHT22;22382;44.768;17.206;2023-11-21T00:57:01;10.00;99.90
36352;DHT22;22382;44.768;17.206;2023-11-21T00:59:28;10.00;99.90
36352;DHT22;22382;44.768;17.206;2023-11-21T01:01:55;10.00;99.90
36352;DHT22;22382;44.768;17.206;2023-11-21T01:04:23;10.10;99.90
36352;DHT22;22382;44.768;17.206;2023-11-21T01:06:50;10.10;99.90
36352;DHT22;22382;44.768;17.206;2023-11-21T01:09:17;10.10;99.90
36352;DHT22;22382;44.768;17.206;2023-11-21T01:11:45;10.10;99.90
36352;DHT22;22382;44.768;17.206;2023-11-21T01:14:13;10.10;99.90
36352;DHT22;22382;44.768;17.206;2023-11-21T01:16:40;10.10;99.90
36352;DHT22;22382;44.768;17.206;2023-11-21T01:19:07;10.10;99.90
36352;DHT22;22382;44.768;17.206;2023-11-21T01:21:36;10.00;99.90
36352;DHT22;22382;44.768;17.206;2023-11-21T01:24:04;10.00;99.90
36352;DHT22;22382;44.768;17.206;2023-11-21T01:26:34;10.00;99.90
36352;DHT22;22382;44.768;17.206;2023-11-21T01:29:01;10.00;99.90
36352;DHT22;22382;44.768;17.206;2023-11-21T01:31:29;10.00;99.90
36352;DHT22;22382;44.768;17.206;2023-11-21T01:33:57;10.00;99.90
36352;DHT22;22382;44.768;17.206;2023-11-21T01:36:30;10.00;99.90
36352;DHT22;22382;44.768;17.206;2023-11-21T01:38:59;10.00;99.90
36352;DHT22;22382;44.768;17.206;2023-11-21T01:41:27;10.00;99.90
36352;DHT22;22382;44.768;17.206;2023-11-21T01:43:56;10.00;99.90
36352;DHT22;22382;44.768;17.206;2023-11-21T01:46:23;10.00;99.90
36352;DHT22;22382;44.768;17.206;2023-11-21T01:48:52;9.90;99.90
36352;DHT22;22382;44.768;17.206;2023-11-21T01:51:21;9.90;99.90
36352;DHT22;22382;44.768;17.206;2023-11-21T01:53:48;9.90;99.90
36352;DHT22;22382;44.768;17.206;2023-11-21T01:56:16;9.90;99.90
36352;DHT22;22382;44.768;17.206;2023-11-21T01:58:44;9.90;99.90
36352;DHT22;22382;44.768;17.206;2023-11-21T02:01:14;9.90;99.90
36352;DHT22;22382;44.768;17.206;2023-11-21T02:03:41;9.90;99.90
36352;DHT22;22382;44.768;17.206;2023-11-21T02:06:09;9.90;99.90
36352;DHT22;22382;44.768;17.206;2023-11-21T02:08:36;9.90;99.90
36352;DHT22;22382;44.768;17.206;2023-11-21T02:11:05;9.90;99.90
36352;DHT22;22382;44.768;17.206;2023-11-21T02:13:33;9.90;99.90
36352;DHT22;22382;44.768;17.206;2023-11-21T02:16:00;9.90;99.90
36352;DHT22;22382;44.768;17.206;2023-11-21T02:18:28;9.90;99.90
36352;DHT22;22382;44.768;17.206;2023-11-21T02:20:56;9.80;99.90
36352;DHT22;22382;44.768;17.206;2023-11-21T02:23:23;9.80;99.90
36352;DHT22;22382;44.768;17.206;2023-11-21T02:25:55;9.80;99.90
36352;DHT22;22382;44.768;17.206;2023-11-21T02:28:22;9.80;99.90
36352;DHT22;22382;44.768;17.206;2023-11-21T02:30:53;9.80;99.90
36352;DHT22;22382;44.768;17.206;2023-11-21T02:33:25;9.80;99.90
36352;DHT22;22382;44.768;17.206;2023-11-21T02:35:52;9.70;99.90
36352;DHT22;22382;44.768;17.206;2023-11-21T02:38:22;9.70;99.90
36352;DHT22;22382;44.768;17.206;2023-11-21T02:40:49;9.70;99.90
36352;DHT22;22382;44.768;17.206;2023-11-21T02:43:16;9.70;99.90
36352;DHT22;22382;44.768;17.206;2023-11-21T02:45:43;9.70;99.90
36352;DHT22;22382;44.768;17.206;2023-11-21T02:48:11;9.60;99.90
36352;DHT22;22382;44.768;17.206;2023-11-21T02:50:38;9.70;99.90
36352;DHT22;22382;44.768;17.206;2023-11-21T02:53:05;9.70;99.90
36352;DHT22;22382;44.768;17.206;2023-11-21T02:55:35;9.70;99.90
36352;DHT22;22382;44.768;17.206;2023-11-21T02:58:03;9.70;99.90
36352;DHT22;22382;44.768;17.206;2023-11-21T03:00:33;9.70;99.90
36352;DHT22;22382;44.768;17.206;2023-11-21T03:03:00;9.70;99.90
36352;DHT22;22382;44.768;17.206;2023-11-21T03:05:27;9.70;99.90
36352;DHT22;22382;44.768;17.206;2023-11-21T03:07:56;9.70;99.90
36352;DHT22;22382;44.768;17.206;2023-11-21T03:10:23;9.80;99.90
36352;DHT22;22382;44.768;17.206;2023-11-21T03:12:50;9.80;99.90
36352;DHT22;22382;44.768;17.206;2023-11-21T03:15:18;9.80;99.90
36352;DHT22;22382;44.768;17.206;2023-11-21T03:17:45;9.80;99.90
36352;DHT22;22382;44.768;17.206;2023-11-21T03:20:12;9.80;99.90
36352;DHT22;22382;44.768;17.206;2023-11-21T03:22:40;9.80;99.90
36352;DHT22;22382;44.768;17.206;2023-11-21T03:25:08;9.90;99.90
36352;DHT22;22382;44.768;17.206;2023-11-21T03:27:38;9.90;99.90
36352;DHT22;22382;44.768;17.206;2023-11-21T03:30:08;9.90;99.90
36352;DHT22;22382;44.768;17.206;2023-11-21T03:32:36;9.90;99.90
36352;DHT22;22382;44.768;17.206;2023-11-21T03:35:03;9.90;99.90
36352;DHT22;22382;44.768;17.206;2023-11-21T03:37:31;10.00;99.90
36352;DHT22;22382;44.768;17.206;2023-11-21T03:39:58;9.90;99.90
36352;DHT22;22382;44.768;17.206;2023-11-21T03:42:25;9.90;99.90
36352;DHT22;22382;44.768;17.206;2023-11-21T03:44:53;10.00;99.90
36352;DHT22;22382;44.768;17.206;2023-11-21T03:47:21;10.00;99.90
36352;DHT22;22382;44.768;17.206;2023-11-21T03:49:48;10.00;99.90
36352;DHT22;22382;44.768;17.206;2023-11-21T03:52:16;10.00;99.90
36352;DHT22;22382;44.768;17.206;2023-11-21T03:54:44;10.00;99.90
36352;DHT22;22382;44.768;17.206;2023-11-21T03:57:12;10.00;99.90
36352;DHT22;22382;44.768;17.206;2023-11-21T03:59:45;10.00;99.90
36352;DHT22;22382;44.768;17.206;2023-11-21T04:02:12;10.00;99.90
36352;DHT22;22382;44.768;17.206;2023-11-21T04:04:39;10.10;99.90
36352;DHT22;22382;44.768;17.206;2023-11-21T04:07:07;10.20;99.90
36352;DHT22;22382;44.768;17.206;2023-11-21T04:09:34;10.20;99.90
36352;DHT22;22382;44.768;17.206;2023-11-21T04:12:03;10.30;99.90
36352;DHT22;22382;44.768;17.206;2023-11-21T04:14:30;10.30;99.90
36352;DHT22;22382;44.768;17.206;2023-11-21T04:16:58;10.30;99.90
36352;DHT22;22382;44.768;17.206;2023-11-21T04:19:26;10.30;99.90
36352;DHT22;22382;44.768;17.206;2023-11-21T04:21:53;10.30;99.90
36352;DHT22;22382;44.768;17.206;2023-11-21T04:24:20;10.30;99.90
36352;DHT22;22382;44.768;17.206;2023-11-21T04:26:47;10.30;99.90
36352;DHT22;22382;44.768;17.206;2023-11-21T04:29:14;10.30;99.90
36352;DHT22;22382;44.768;17.206;2023-11-21T04:31:42;10.30;99.90
36352;DHT22;22382;44.768;17.206;2023-11-21T04:34:10;10.30;99.90
36352;DHT22;22382;44.768;17.206;2023-11-21T04:36:37;10.40;99.90
36352;DHT22;22382;44.768;17.206;2023-11-21T04:39:04;10.40;99.90
36352;DHT22;22382;44.768;17.206;2023-11-21T04:41:33;10.30;99.90
36352;DHT22;22382;44.768;17.206;2023-11-21T04:44:00;10.40;99.90
36352;DHT22;22382;44.768;17.206;2023-11-21T04:46:28;10.30;99.90
36352;DHT22;22382;44.768;17.206;2023-11-21T04:48:55;10.10;99.90
36352;DHT22;22382;44.768;17.206;2023-11-21T04:51:23;10.10;99.90
36352;DHT22;22382;44.768;17.206;2023-11-21T04:53:50;10.00;99.90
36352;DHT22;22382;44.768;17.206;2023-11-21T04:56:17;10.00;99.90
36352;DHT22;22382;44.768;17.206;2023-11-21T04:58:45;10.00;99.90
36352;DHT22;22382;44.768;17.206;2023-11-21T05:01:12;10.00;99.90
36352;DHT22;22382;44.768;17.206;2023-11-21T05:03:40;10.00;99.90
36352;DHT22;22382;44.768;17.206;2023-11-21T05:06:10;9.90;99.90
36352;DHT22;22382;44.768;17.206;2023-11-21T05:08:37;9.90;99.90
36352;DHT22;22382;44.768;17.206;2023-11-21T05:11:04;10.00;99.90
36352;DHT22;22382;44.768;17.206;2023-11-21T05:13:34;9.90;99.90
36352;DHT22;22382;44.768;17.206;2023-11-21T05:16:02;9.90;99.90
36352;DHT22;22382;44.768;17.206;2023-11-21T05:18:31;9.80;99.90
36352;DHT22;22382;44.768;17.206;2023-11-21T05:20:58;9.80;99.90
36352;DHT22;22382;44.768;17.206;2023-11-21T05:23:25;9.70;99.90
36352;DHT22;22382;44.768;17.206;2023-11-21T05:25:52;9.70;99.90
36352;DHT22;22382;44.768;17.206;2023-11-21T05:28:20;9.70;99.90
36352;DHT22;22382;44.768;17.206;2023-11-21T05:30:47;9.70;99.90
36352;DHT22;22382;44.768;17.206;2023-11-21T05:33:14;9.60;99.90
36352;DHT22;22382;44.768;17.206;2023-11-21T05:35:41;9.60;99.90
36352;DHT22;22382;44.768;17.206;2023-11-21T05:38:09;9.70;99.90
36352;DHT22;22382;44.768;17.206;2023-11-21T05:40:36;9.70;99.90
36352;DHT22;22382;44.768;17.206;2023-11-21T05:43:04;9.70;99.90
36352;DHT22;22382;44.768;17.206;2023-11-21T05:45:32;9.80;99.90
36352;DHT22;22382;44.768;17.206;2023-11-21T05:47:59;9.80;99.90
36352;DHT22;22382;44.768;17.206;2023-11-21T05:50:26;9.80;99.90
36352;DHT22;22382;44.768;17.206;2023-11-21T05:52:54;9.90;99.90
36352;DHT22;22382;44.768;17.206;2023-11-21T05:55:22;9.90;99.90
36352;DHT22;22382;44.768;17.206;2023-11-21T05:57:53;9.90;99.90
36352;DHT22;22382;44.768;17.206;2023-11-21T06:00:20;9.90;99.90
36352;DHT22;22382;44.768;17.206;2023-11-21T06:02:53;9.90;99.90
36352;DHT22;22382;44.768;17.206;2023-11-21T06:05:23;10.00;99.90
36352;DHT22;22382;44.768;17.206;2023-11-21T06:07:55;10.00;99.90
36352;DHT22;22382;44.768;17.206;2023-11-21T06:10:26;10.00;99.90
36352;DHT22;22382;44.768;17.206;2023-11-21T06:12:55;10.00;99.90
36352;DHT22;22382;44.768;17.206;2023-11-21T06:15:29;9.90;99.90
36352;DHT22;22382;44.768;17.206;2023-11-21T06:17:56;9.90;99.90
36352;DHT22;22382;44.768;17.206;2023-11-21T06:20:24;10.00;99.90
36352;DHT22;22382;44.768;17.206;2023-11-21T06:22:51;10.00;99.90
36352;DHT22;22382;44.768;17.206;2023-11-21T06:25:19;9.90;99.90
36352;DHT22;22382;44.768;17.206;2023-11-21T06:27:47;9.90;99.90
36352;DHT22;22382;44.768;17.206;2023-11-21T06:30:15;10.00;99.90
36352;DHT22;22382;44.768;17.206;2023-11-21T06:32:43;10.00;99.90
36352;DHT22;22382;44.768;17.206;2023-11-21T06:35:14;10.00;99.90
36352;DHT22;22382;44.768;17.206;2023-11-21T06:37:44;9.90;99.90
36352;DHT22;22382;44.768;17.206;2023-11-21T06:40:17;9.90;99.90
36352;DHT22;22382;44.768;17.206;2023-11-21T06:42:48;9.90;99.90
36352;DHT22;22382;44.768;17.206;2023-11-21T06:45:16;10.00;99.90
36352;DHT22;22382;44.768;17.206;2023-11-21T06:47:44;10.00;99.90
36352;DHT22;22382;44.768;17.206;2023-11-21T06:50:12;10.00;99.90
36352;DHT22;22382;44.768;17.206;2023-11-21T06:52:39;10.00;99.90
36352;DHT22;22382;44.768;17.206;2023-11-21T06:55:07;10.10;99.90
36352;DHT22;22382;44.768;17.206;2023-11-21T06:57:37;10.00;99.90
36352;DHT22;22382;44.768;17.206;2023-11-21T07:00:05;10.10;99.90
36352;DHT22;22382;44.768;17.206;2023-11-21T07:02:36;10.00;99.90
36352;DHT22;22382;44.768;17.206;2023-11-21T07:05:04;10.00;99.90
36352;DHT22;22382;44.768;17.206;2023-11-21T07:07:31;10.00;99.90
36352;DHT22;22382;44.768;17.206;2023-11-21T07:09:58;9.90;99.90
36352;DHT22;22382;44.768;17.206;2023-11-21T07:12:30;10.00;99.90
36352;DHT22;22382;44.768;17.206;2023-11-21T07:14:58;9.90;99.90
36352;DHT22;22382;44.768;17.206;2023-11-21T07:17:26;10.00;99.90
36352;DHT22;22382;44.768;17.206;2023-11-21T07:19:53;10.00;99.90
36352;DHT22;22382;44.768;17.206;2023-11-21T07:22:20;10.00;99.90
36352;DHT22;22382;44.768;17.206;2023-11-21T07:24:49;10.00;99.90
36352;DHT22;22382;44.768;17.206;2023-11-21T07:27:19;10.00;99.90
36352;DHT22;22382;44.768;17.206;2023-11-21T07:29:46;10.10;99.90
36352;DHT22;22382;44.768;17.206;2023-11-21T07:32:15;10.10;99.90
36352;DHT22;22382;44.768;17.206;2023-11-21T07:34:43;10.10;99.90
36352;DHT22;22382;44.768;17.206;2023-11-21T07:37:10;10.10;99.90
36352;DHT22;22382;44.768;17.206;2023-11-21T07:39:37;10.10;99.90
36352;DHT22;22382;44.768;17.206;2023-11-21T07:42:09;10.20;99.90
36352;DHT22;22382;44.768;17.206;2023-11-21T07:44:38;10.20;99.90
36352;DHT22;22382;44.768;17.206;2023-11-21T07:47:05;10.20;99.90
36352;DHT22;22382;44.768;17.206;2023-11-21T07:49:32;10.10;99.90
36352;DHT22;22382;44.768;17.206;2023-11-21T07:51:59;10.10;99.90
36352;DHT22;22382;44.768;17.206;2023-11-21T07:54:27;10.10;99.90
36352;DHT22;22382;44.768;17.206;2023-11-21T07:56:54;10.00;99.90
36352;DHT22;22382;44.768;17.206;2023-11-21T07:59:22;9.90;99.90
36352;DHT22;22382;44.768;17.206;2023-11-21T08:01:49;9.90;99.90
36352;DHT22;22382;44.768;17.206;2023-11-21T08:04:17;9.80;99.90
36352;DHT22;22382;44.768;17.206;2023-11-21T08:06:44;9.80;99.90
36352;DHT22;22382;44.768;17.206;2023-11-21T08:09:11;9.90;99.90
36352;DHT22;22382;44.768;17.206;2023-11-21T08:11:39;10.00;99.90
36352;DHT22;22382;44.768;17.206;2023-11-21T08:14:06;10.00;99.90
36352;DHT22;22382;44.768;17.206;2023-11-21T08:16:33;10.00;99.90
36352;DHT22;22382;44.768;17.206;2023-11-21T08:19:01;10.00;99.90
36352;DHT22;22382;44.768;17.206;2023-11-21T08:21:29;10.00;99.90
36352;DHT22;22382;44.768;17.206;2023-11-21T08:23:56;10.00;99.90
36352;DHT22;22382;44.768;17.206;2023-11-21T08:26:25;10.00;99.90
36352;DHT22;22382;44.768;17.206;2023-11-21T08:28:56;10.00;99.90
36352;DHT22;22382;44.768;17.206;2023-11-21T08:31:29;9.90;99.90
36352;DHT22;22382;44.768;17.206;2023-11-21T08:33:59;9.90;99.90
36352;DHT22;22382;44.768;17.206;2023-11-21T08:36:32;9.90;99.90
36352;DHT22;22382;44.768;17.206;2023-11-21T08:39:01;10.00;99.90
36352;DHT22;22382;44.768;17.206;2023-11-21T08:41:31;10.00;99.90
36352;DHT22;22382;44.768;17.206;2023-11-21T08:44:11;10.00;99.90
36352;DHT22;22382;44.768;17.206;2023-11-21T08:46:45;10.00;99.90
36352;DHT22;22382;44.768;17.206;2023-11-21T08:49:19;9.90;99.90
36352;DHT22;22382;44.768;17.206;2023-11-21T08:51:48;9.90;99.90
36352;DHT22;22382;44.768;17.206;2023-11-21T08:54:17;10.00;99.90
36352;DHT22;22382;44.768;17.206;2023-11-21T08:56:46;10.00;99.90
36352;DHT22;22382;44.768;17.206;2023-11-21T08:59:18;10.00;99.90
36352;DHT22;22382;44.768;17.206;2023-11-21T09:01:48;10.00;99.90
36352;DHT22;22382;44.768;17.206;2023-11-21T09:04:18;10.00;99.90
36352;DHT22;22382;44.768;17.206;2023-11-21T09:06:48;10.00;99.90
36352;DHT22;22382;44.768;17.206;2023-11-21T09:09:18;10.00;99.90
36352;DHT22;22382;44.768;17.206;2023-11-21T09:11:48;10.00;99.90
36352;DHT22;22382;44.768;17.206;2023-11-21T09:14:17;10.10;99.90
36352;DHT22;22382;44.768;17.206;2023-11-21T09:16:46;10.10;99.90
36352;DHT22;22382;44.768;17.206;2023-11-21T09:19:20;10.20;99.90
36352;DHT22;22382;44.768;17.206;2023-11-21T09:21:50;10.20;99.90
36352;DHT22;22382;44.768;17.206;2023-11-21T09:24:26;10.20;99.90
36352;DHT22;22382;44.768;17.206;2023-11-21T09:27:01;10.20;99.90
36352;DHT22;22382;44.768;17.206;2023-11-21T09:29:34;10.30;99.90
36352;DHT22;22382;44.768;17.206;2023-11-21T09:32:04;10.30;99.90
36352;DHT22;22382;44.768;17.206;2023-11-21T09:34:39;10.30;99.90
36352;DHT22;22382;44.768;17.206;2023-11-21T09:37:13;10.30;99.90
36352;DHT22;22382;44.768;17.206;2023-11-21T09:39:43;10.30;99.90
36352;DHT22;22382;44.768;17.206;2023-11-21T09:42:19;10.20;99.90
36352;DHT22;22382;44.768;17.206;2023-11-21T09:47:55;10.20;99.90
36352;DHT22;22382;44.768;17.206;2023-11-21T09:50:28;10.20;99.90
36352;DHT22;22382;44.768;17.206;2023-11-21T09:53:09;10.20;99.90
36352;DHT22;22382;44.768;17.206;2023-11-21T09:55:48;10.20;99.90
36352;DHT22;22382;44.768;17.206;2023-11-21T09:58:21;10.20;99.90
36352;DHT22;22382;44.768;17.206;2023-11-21T10:00:58;10.20;99.90
36352;DHT22;22382;44.768;17.206;2023-11-21T10:03:30;10.20;99.90
36352;DHT22;22382;44.768;17.206;2023-11-21T10:06:04;10.10;99.90
36352;DHT22;22382;44.768;17.206;2023-11-21T10:08:34;10.10;99.90
36352;DHT22;22382;44.768;17.206;2023-11-21T10:11:21;10.10;99.90
36352;DHT22;22382;44.768;17.206;2023-11-21T10:13:55;10.10;99.90
36352;DHT22;22382;44.768;17.206;2023-11-21T10:16:28;10.10;99.90
36352;DHT22;22382;44.768;17.206;2023-11-21T10:18:58;10.20;99.90
36352;DHT22;22382;44.768;17.206;2023-11-21T10:21:41;10.20;99.90
36352;DHT22;22382;44.768;17.206;2023-11-21T10:24:10;10.20;99.90
36352;DHT22;22382;44.768;17.206;2023-11-21T10:26:41;10.20;99.90
36352;DHT22;22382;44.768;17.206;2023-11-21T10:29:23;10.20;99.90
36352;DHT22;22382;44.768;17.206;2023-11-21T10:32:06;10.20;99.90
36352;DHT22;22382;44.768;17.206;2023-11-21T10:34:36;10.10;99.90
36352;DHT22;22382;44.768;17.206;2023-11-21T10:37:13;10.10;99.90
36352;DHT22;22382;44.768;17.206;2023-11-21T10:39:47;10.00;99.90
36352;DHT22;22382;44.768;17.206;2023-11-21T10:42:27;10.00;99.90
36352;DHT22;22382;44.768;17.206;2023-11-21T10:44:57;9.90;99.90
36352;DHT22;22382;44.768;17.206;2023-11-21T10:47:27;9.90;99.90
36352;DHT22;22382;44.768;17.206;2023-11-21T10:50:04;10.00;99.90
36352;DHT22;22382;44.768;17.206;2023-11-21T10:52:36;10.00;99.90
36352;DHT22;22382;44.768;17.206;2023-11-21T10:55:20;10.00;99.90
36352;DHT22;22382;44.768;17.206;2023-11-21T10:57:53;10.10;99.90
36352;DHT22;22382;44.768;17.206;2023-11-21T11:00:25;10.10;99.90
36352;DHT22;22382;44.768;17.206;2023-11-21T11:02:58;10.10;99.90
36352;DHT22;22382;44.768;17.206;2023-11-21T11:05:29;10.10;99.90
36352;DHT22;22382;44.768;17.206;2023-11-21T11:08:12;10.20;99.90
36352;DHT22;22382;44.768;17.206;2023-11-21T11:10:46;10.20;99.90
36352;DHT22;22382;44.768;17.206;2023-11-21T11:13:20;10.20;99.90
36352;DHT22;22382;44.768;17.206;2023-11-21T11:15:51;10.20;99.90
36352;DHT22;22382;44.768;17.206;2023-11-21T11:18:31;10.20;99.90
36352;DHT22;22382;44.768;17.206;2023-11-21T11:21:38;10.20;99.90
36352;DHT22;22382;44.768;17.206;2023-11-21T11:24:44;10.20;99.90
36352;DHT22;22382;44.768;17.206;2023-11-21T11:30:04;10.20;99.90
36352;DHT22;22382;44.768;17.206;2023-11-21T11:33:09;10.30;99.90
36352;DHT22;22382;44.768;17.206;2023-11-21T11:38:23;10.30;99.90
36352;DHT22;22382;44.768;17.206;2023-11-21T11:40:53;10.30;99.90
36352;DHT22;22382;44.768;17.206;2023-11-21T11:43:27;10.40;99.90
36352;DHT22;22382;44.768;17.206;2023-11-21T11:45:59;10.40;99.90
36352;DHT22;22382;44.768;17.206;2023-11-21T11:48:28;10.50;99.90
36352;DHT22;22382;44.768;17.206;2023-11-21T11:51:09;10.50;99.90
36352;DHT22;22382;44.768;17.206;2023-11-21T11:53:47;10.60;99.90
36352;DHT22;22382;44.768;17.206;2023-11-21T11:56:47;10.60;99.90
36352;DHT22;22382;44.768;17.206;2023-11-21T11:59:20;10.50;99.90
36352;DHT22;22382;44.768;17.206;2023-11-21T12:01:51;10.50;99.90
36352;DHT22;22382;44.768;17.206;2023-11-21T12:04:25;10.50;99.90
36352;DHT22;22382;44.768;17.206;2023-11-21T12:07:01;10.40;99.90
36352;DHT22;22382;44.768;17.206;2023-11-21T12:09:32;10.40;99.90
36352;DHT22;22382;44.768;17.206;2023-11-21T12:12:00;10.30;99.90
36352;DHT22;22382;44.768;17.206;2023-11-21T12:14:28;10.30;99.90
36352;DHT22;22382;44.768;17.206;2023-11-21T12:16:56;10.20;99.90
36352;DHT22;22382;44.768;17.206;2023-11-21T12:19:23;10.30;99.90
36352;DHT22;22382;44.768;17.206;2023-11-21T12:21:50;10.30;99.90
36352;DHT22;22382;44.768;17.206;2023-11-21T12:24:18;10.20;99.90
36352;DHT22;22382;44.768;17.206;2023-11-21T12:26:46;10.10;99.90
36352;DHT22;22382;44.768;17.206;2023-11-21T12:29:13;10.30;99.90
36352;DHT22;22382;44.768;17.206;2023-11-21T12:31:40;10.40;99.90
36352;DHT22;22382;44.768;17.206;2023-11-21T12:34:08;10.40;99.90
36352;DHT22;22382;44.768;17.206;2023-11-21T12:36:38;10.30;99.90
36352;DHT22;22382;44.768;17.206;2023-11-21T12:39:07;10.20;99.90
36352;DHT22;22382;44.768;17.206;2023-11-21T12:41:36;10.30;99.90
36352;DHT22;22382;44.768;17.206;2023-11-21T12:44:03;10.30;99.90
36352;DHT22;22382;44.768;17.206;2023-11-21T12:46:31;10.30;99.90
36352;DHT22;22382;44.768;17.206;2023-11-21T12:49:00;10.30;99.90
36352;DHT22;22382;44.768;17.206;2023-11-21T12:51:28;10.30;99.90
36352;DHT22;22382;44.768;17.206;2023-11-21T12:53:56;10.20;99.90
36352;DHT22;22382;44.768;17.206;2023-11-21T12:56:25;10.10;99.90
36352;DHT22;22382;44.768;17.206;2023-11-21T12:58:54;10.20;99.90
36352;DHT22;22382;44.768;17.206;2023-11-21T13:01:25;10.30;99.90
36352;DHT22;22382;44.768;17.206;2023-11-21T13:03:59;10.40;99.90
36352;DHT22;22382;44.768;17.206;2023-11-21T13:06:26;10.40;99.90
36352;DHT22;22382;44.768;17.206;2023-11-21T13:08:54;10.50;99.90
36352;DHT22;22382;44.768;17.206;2023-11-21T13:11:24;10.50;99.90
36352;DHT22;22382;44.768;17.206;2023-11-21T13:13:53;10.50;99.90
36352;DHT22;22382;44.768;17.206;2023-11-21T13:16:21;10.50;99.90
36352;DHT22;22382;44.768;17.206;2023-11-21T13:18:48;10.50;99.90
36352;DHT22;22382;44.768;17.206;2023-11-21T13:21:16;10.50;99.90
36352;DHT22;22382;44.768;17.206;2023-11-21T13:23:47;10.60;99.90
36352;DHT22;22382;44.768;17.206;2023-11-21T13:26:17;10.70;99.90
36352;DHT22;22382;44.768;17.206;2023-11-21T13:28:47;10.60;99.90
36352;DHT22;22382;44.768;17.206;2023-11-21T13:31:15;10.70;99.90
36352;DHT22;22382;44.768;17.206;2023-11-21T13:33:53;10.70;99.90
36352;DHT22;22382;44.768;17.206;2023-11-21T13:36:26;10.60;99.90
36352;DHT22;22382;44.768;17.206;2023-11-21T13:38:57;10.60;99.90
36352;DHT22;22382;44.768;17.206;2023-11-21T13:41:25;10.50;99.90
36352;DHT22;22382;44.768;17.206;2023-11-21T13:43:59;10.40;99.90
36352;DHT22;22382;44.768;17.206;2023-11-21T13:46:59;10.40;99.90
36352;DHT22;22382;44.768;17.206;2023-11-21T13:49:26;10.50;99.90
36352;DHT22;22382;44.768;17.206;2023-11-21T13:51:54;10.40;99.90
36352;DHT22;22382;44.768;17.206;2023-11-21T13:54:22;10.40;99.90
36352;DHT22;22382;44.768;17.206;2023-11-21T13:56:52;10.40;99.90
36352;DHT22;22382;44.768;17.206;2023-11-21T13:59:19;10.40;99.90
36352;DHT22;22382;44.768;17.206;2023-11-21T14:01:50;10.50;99.90
36352;DHT22;22382;44.768;17.206;2023-11-21T14:04:27;10.40;99.90
36352;DHT22;22382;44.768;17.206;2023-11-21T14:06:57;10.40;99.90
36352;DHT22;22382;44.768;17.206;2023-11-21T14:09:28;10.30;99.90
36352;DHT22;22382;44.768;17.206;2023-11-21T14:12:11;10.20;99.90
36352;DHT22;22382;44.768;17.206;2023-11-21T14:14:40;10.10;99.90
36352;DHT22;22382;44.768;17.206;2023-11-21T14:17:08;10.00;99.90
36352;DHT22;22382;44.768;17.206;2023-11-21T14:19:37;10.00;99.90
36352;DHT22;22382;44.768;17.206;2023-11-21T14:22:10;10.00;99.90
36352;DHT22;22382;44.768;17.206;2023-11-21T14:24:38;10.00;99.90
36352;DHT22;22382;44.768;17.206;2023-11-21T14:27:10;9.90;99.90
36352;DHT22;22382;44.768;17.206;2023-11-21T14:29:38;9.80;99.90
36352;DHT22;22382;44.768;17.206;2023-11-21T14:32:09;9.80;99.90
36352;DHT22;22382;44.768;17.206;2023-11-21T14:34:36;9.90;99.90
36352;DHT22;22382;44.768;17.206;2023-11-21T14:37:04;9.90;99.90
36352;DHT22;22382;44.768;17.206;2023-11-21T14:39:31;9.90;99.90
36352;DHT22;22382;44.768;17.206;2023-11-21T14:42:02;10.00;99.90
36352;DHT22;22382;44.768;17.206;2023-11-21T14:44:29;10.00;99.90
36352;DHT22;22382;44.768;17.206;2023-11-21T14:47:02;9.90;99.90
36352;DHT22;22382;44.768;17.206;2023-11-21T14:49:34;10.00;99.90
36352;DHT22;22382;44.768;17.206;2023-11-21T14:52:39;10.00;99.90
36352;DHT22;22382;44.768;17.206;2023-11-21T14:55:22;10.00;99.90
36352;DHT22;22382;44.768;17.206;2023-11-21T14:57:59;9.90;99.90
36352;DHT22;22382;44.768;17.206;2023-11-21T15:00:31;9.80;99.90
36352;DHT22;22382;44.768;17.206;2023-11-21T15:03:18;9.80;99.90
36352;DHT22;22382;44.768;17.206;2023-11-21T15:06:13;9.80;99.90
36352;DHT22;22382;44.768;17.206;2023-11-21T15:08:56;9.80;99.90
36352;DHT22;22382;44.768;17.206;2023-11-21T15:11:55;10.00;99.90
36352;DHT22;22382;44.768;17.206;2023-11-21T15:14:30;10.00;99.90
36352;DHT22;22382;44.768;17.206;2023-11-21T15:17:03;9.90;99.90
36352;DHT22;22382;44.768;17.206;2023-11-21T15:19:31;10.00;99.90
36352;DHT22;22382;44.768;17.206;2023-11-21T15:21:58;10.00;99.90
36352;DHT22;22382;44.768;17.206;2023-11-21T15:24:26;10.00;99.90
36352;DHT22;22382;44.768;17.206;2023-11-21T15:26:53;9.80;99.90
36352;DHT22;22382;44.768;17.206;2023-11-21T15:29:20;9.80;99.90
36352;DHT22;22382;44.768;17.206;2023-11-21T15:31:48;9.80;99.90
36352;DHT22;22382;44.768;17.206;2023-11-21T15:34:16;9.80;99.90
36352;DHT22;22382;44.768;17.206;2023-11-21T15:36:43;9.80;99.90
36352;DHT22;22382;44.768;17.206;2023-11-21T15:39:10;9.80;99.90
36352;DHT22;22382;44.768;17.206;2023-11-21T15:41:38;9.80;99.90
36352;DHT22;22382;44.768;17.206;2023-11-21T15:44:07;9.70;99.90
36352;DHT22;22382;44.768;17.206;2023-11-21T15:46:37;9.60;99.90